createdAt,value
2022-10-07T00:00:49.718Z,0.00
2022-10-07T00:01:49.755Z,0.00
2022-10-07T00:02:49.626Z,0.00
2022-10-07T00:03:49.442Z,0.00
2022-10-07T00:04:49.361Z,0.00
2022-10-07T00:05:49.275Z,0.00
2022-10-07T00:06:49.196Z,0.00
2022-10-07T00:07:49.131Z,0.00
2022-10-07T00:08:49.030Z,0.00
2022-10-07T00:09:48.947Z,0.00
2022-10-07T00:10:48.865Z,0.00
2022-10-07T00:11:48.783Z,0.00
2022-10-07T00:12:48.699Z,0.00
2022-10-07T00:13:48.615Z,0.00
2022-10-07T00:14:48.536Z,0.00
2022-10-07T00:15:48.450Z,0.00
2022-10-07T00:16:48.442Z,0.00
2022-10-07T00:17:48.287Z,0.00
2022-10-07T00:18:48.204Z,0.00
2022-10-07T00:19:48.121Z,0.00
2022-10-07T00:20:48.041Z,0.00
2022-10-07T00:21:47.953Z,0.00
2022-10-07T00:22:47.874Z,0.00
2022-10-07T00:23:47.808Z,0.00
2022-10-07T00:24:47.708Z,0.00
2022-10-07T00:25:47.623Z,0.00
2022-10-07T00:26:47.541Z,0.00
2022-10-07T00:27:47.516Z,0.00
2022-10-07T00:28:47.376Z,0.00
2022-10-07T00:29:47.292Z,0.00
2022-10-07T00:30:47.265Z,0.00
2022-10-07T00:31:47.130Z,0.00
2022-10-07T00:32:47.046Z,0.00
2022-10-07T00:33:46.961Z,0.00
2022-10-07T00:34:46.879Z,0.00
2022-10-07T00:35:46.800Z,0.00
2022-10-07T00:36:46.875Z,0.00
2022-10-07T00:37:47.149Z,0.00
2022-10-07T00:38:46.558Z,0.00
2022-10-07T00:39:46.487Z,0.00
2022-10-07T00:40:46.386Z,0.00
2022-10-07T00:41:46.304Z,0.00
2022-10-07T00:42:46.222Z,0.00
2022-10-07T00:43:46.138Z,0.00
2022-10-07T00:44:46.055Z,0.00
2022-10-07T00:45:46.162Z,0.00
2022-10-07T00:46:45.895Z,0.00
2022-10-07T00:47:46.532Z,0.00
2022-10-07T00:48:45.825Z,0.00
2022-10-07T00:49:45.642Z,0.00
2022-10-07T00:50:45.561Z,0.00
2022-10-07T00:51:45.477Z,0.00
2022-10-07T00:52:45.395Z,0.00
2022-10-07T00:53:45.314Z,0.00
2022-10-07T00:54:45.231Z,0.00
2022-10-07T00:55:45.167Z,0.00
2022-10-07T00:56:45.069Z,0.00
2022-10-07T00:57:45.268Z,0.00
2022-10-07T00:58:44.902Z,0.00
2022-10-07T00:59:44.820Z,0.00
2022-10-07T01:00:44.743Z,0.00
2022-10-07T01:01:44.725Z,0.00
2022-10-07T01:02:44.611Z,0.00
2022-10-07T01:03:44.492Z,0.00
2022-10-07T01:04:44.410Z,0.00
2022-10-07T01:05:44.327Z,0.00
2022-10-07T01:06:44.242Z,0.00
2022-10-07T01:07:44.469Z,0.00
2022-10-07T01:08:44.080Z,0.00
2022-10-07T01:09:43.997Z,0.00
2022-10-07T01:10:43.914Z,0.00
2022-10-07T01:11:43.852Z,0.00
2022-10-07T01:12:43.750Z,0.00
2022-10-07T01:13:43.673Z,0.00
2022-10-07T01:14:43.585Z,0.00
2022-10-07T01:15:43.504Z,0.00
2022-10-07T01:16:43.466Z,0.00
2022-10-07T01:17:43.529Z,0.00
2022-10-07T01:18:43.256Z,0.00
2022-10-07T01:19:43.174Z,0.00
2022-10-07T01:20:43.093Z,0.00
2022-10-07T01:21:43.007Z,0.00
2022-10-07T01:22:42.925Z,0.00
2022-10-07T01:23:42.846Z,0.00
2022-10-07T01:24:42.762Z,0.00
2022-10-07T01:25:42.679Z,0.00
2022-10-07T01:26:42.598Z,0.00
2022-10-07T01:27:43.134Z,0.00
2022-10-07T01:28:42.477Z,0.00
2022-10-07T01:29:42.350Z,0.00
2022-10-07T01:30:42.394Z,0.00
2022-10-07T01:31:42.186Z,0.00
2022-10-07T01:32:42.102Z,0.00
2022-10-07T01:33:42.018Z,0.00
2022-10-07T01:34:41.938Z,0.00
2022-10-07T01:35:41.856Z,0.00
2022-10-07T01:36:41.922Z,0.00
2022-10-07T01:37:42.044Z,0.00
2022-10-07T01:38:41.628Z,0.00
2022-10-07T01:39:41.525Z,0.00
2022-10-07T01:40:41.444Z,0.00
2022-10-07T01:41:41.361Z,0.00
2022-10-07T01:42:41.277Z,0.00
2022-10-07T01:43:41.214Z,0.00
2022-10-07T01:44:41.122Z,0.00
2022-10-07T01:45:41.029Z,0.00
2022-10-07T01:46:40.949Z,0.00
2022-10-07T01:47:40.925Z,0.00
2022-10-07T01:48:40.784Z,0.00
2022-10-07T01:49:40.701Z,0.00
2022-10-07T01:50:40.619Z,0.00
2022-10-07T01:51:40.538Z,0.00
2022-10-07T01:52:40.453Z,0.00
2022-10-07T01:53:40.374Z,0.00
2022-10-07T01:54:40.287Z,0.00
2022-10-07T01:55:40.756Z,0.00
2022-10-07T01:56:40.122Z,0.00
2022-10-07T01:57:40.040Z,0.00
2022-10-07T01:58:39.958Z,0.00
2022-10-07T01:59:39.898Z,0.00
2022-10-07T02:00:39.793Z,0.00
2022-10-07T02:01:39.787Z,0.00
2022-10-07T02:02:39.626Z,0.00
2022-10-07T02:03:39.596Z,0.00
2022-10-07T02:04:39.462Z,0.00
2022-10-07T02:05:39.380Z,0.00
2022-10-07T02:06:39.299Z,0.00
2022-10-07T02:07:39.215Z,0.00
2022-10-07T02:08:39.132Z,0.00
2022-10-07T02:09:39.051Z,0.00
2022-10-07T02:10:38.965Z,0.00
2022-10-07T02:11:39.086Z,0.00
2022-10-07T02:12:38.803Z,0.00
2022-10-07T02:13:38.720Z,0.00
2022-10-07T02:14:38.637Z,0.00
2022-10-07T02:15:38.607Z,0.00
2022-10-07T02:16:38.469Z,0.00
2022-10-07T02:17:38.389Z,0.00
2022-10-07T02:18:38.303Z,0.00
2022-10-07T02:19:38.221Z,0.00
2022-10-07T02:20:38.138Z,0.00
2022-10-07T02:21:38.060Z,0.00
2022-10-07T02:22:37.973Z,0.00
2022-10-07T02:23:37.893Z,0.00
2022-10-07T02:24:37.809Z,0.00
2022-10-07T02:25:37.725Z,0.00
2022-10-07T02:26:37.644Z,0.00
2022-10-07T02:27:37.561Z,0.00
2022-10-07T02:28:37.532Z,0.00
2022-10-07T02:29:37.396Z,0.00
2022-10-07T02:30:37.312Z,0.00
2022-10-07T02:31:37.255Z,0.00
2022-10-07T02:32:37.148Z,0.00
2022-10-07T02:33:37.066Z,0.00
2022-10-07T02:34:36.982Z,0.00
2022-10-07T02:35:36.904Z,0.00
2022-10-07T02:36:36.825Z,0.00
2022-10-07T02:37:36.734Z,0.00
2022-10-07T02:38:36.652Z,0.00
2022-10-07T02:39:36.569Z,0.00
2022-10-07T02:40:36.485Z,0.00
2022-10-07T02:41:36.403Z,0.00
2022-10-07T02:42:36.321Z,0.00
2022-10-07T02:43:36.238Z,0.00
2022-10-07T02:44:36.155Z,0.00
2022-10-07T02:45:36.074Z,0.00
2022-10-07T02:46:36.319Z,0.00
2022-10-07T02:47:35.924Z,0.00
2022-10-07T02:48:35.825Z,0.00
2022-10-07T02:49:35.743Z,0.00
2022-10-07T02:50:35.659Z,0.00
2022-10-07T02:51:35.576Z,0.00
2022-10-07T02:52:35.493Z,0.00
2022-10-07T02:53:35.413Z,0.00
2022-10-07T02:54:35.382Z,0.00
2022-10-07T02:55:35.256Z,0.00
2022-10-07T02:56:35.165Z,0.00
2022-10-07T02:57:35.082Z,0.00
2022-10-07T02:58:35.000Z,0.00
2022-10-07T02:59:34.915Z,0.00
2022-10-07T03:00:34.834Z,0.00
2022-10-07T03:01:34.789Z,0.00
2022-10-07T03:02:34.668Z,0.00
2022-10-07T03:03:34.669Z,0.00
2022-10-07T03:04:34.502Z,0.00
2022-10-07T03:05:34.423Z,0.00
2022-10-07T03:06:34.340Z,0.00
2022-10-07T03:07:34.257Z,0.00
2022-10-07T03:08:34.176Z,0.00
2022-10-07T03:09:34.092Z,0.00
2022-10-07T03:10:34.007Z,0.00
2022-10-07T03:11:33.926Z,0.00
2022-10-07T03:12:33.842Z,0.00
2022-10-07T03:13:33.761Z,0.00
2022-10-07T03:14:33.675Z,0.00
2022-10-07T03:15:36.370Z,0.00
2022-10-07T03:16:33.587Z,0.00
2022-10-07T03:17:33.429Z,0.00
2022-10-07T03:18:33.348Z,0.00
2022-10-07T03:19:33.282Z,0.00
2022-10-07T03:20:33.182Z,0.00
2022-10-07T03:21:33.104Z,0.00
2022-10-07T03:22:33.018Z,0.00
2022-10-07T03:23:32.933Z,0.00
2022-10-07T03:24:32.852Z,0.00
2022-10-07T03:25:32.766Z,0.00
2022-10-07T03:26:32.691Z,0.00
2022-10-07T03:27:32.606Z,0.00
2022-10-07T03:28:32.583Z,0.00
2022-10-07T03:29:32.439Z,0.00
2022-10-07T03:30:32.357Z,0.00
2022-10-07T03:31:32.381Z,0.00
2022-10-07T03:32:32.190Z,0.00
2022-10-07T03:33:32.157Z,0.00
2022-10-07T03:34:32.026Z,0.00
2022-10-07T03:35:31.961Z,0.00
2022-10-07T03:36:31.862Z,0.00
2022-10-07T03:37:31.826Z,0.00
2022-10-07T03:38:31.694Z,0.00
2022-10-07T03:39:31.611Z,0.00
2022-10-07T03:40:31.531Z,0.00
2022-10-07T03:41:31.450Z,0.00
2022-10-07T03:42:31.368Z,0.00
2022-10-07T03:43:31.280Z,0.00
2022-10-07T03:44:31.200Z,0.00
2022-10-07T03:45:31.117Z,0.00
2022-10-07T03:46:31.128Z,0.00
2022-10-07T03:47:30.951Z,0.00
2022-10-07T03:48:30.870Z,0.00
2022-10-07T03:49:30.787Z,0.00
2022-10-07T03:50:30.705Z,0.00
2022-10-07T03:51:30.638Z,0.00
2022-10-07T03:52:30.538Z,0.00
2022-10-07T03:53:30.453Z,0.00
2022-10-07T03:54:30.373Z,0.00
2022-10-07T03:55:30.291Z,0.00
2022-10-07T03:56:30.209Z,0.00
2022-10-07T03:57:30.127Z,0.00
2022-10-07T03:58:30.044Z,0.00
2022-10-07T03:59:29.960Z,0.00
2022-10-07T04:00:29.894Z,0.00
2022-10-07T04:01:29.838Z,0.00
2022-10-07T04:02:29.761Z,0.00
2022-10-07T04:03:29.630Z,0.00
2022-10-07T04:04:29.546Z,0.00
2022-10-07T04:05:29.462Z,0.00
2022-10-07T04:06:29.383Z,0.00
2022-10-07T04:07:29.316Z,0.00
2022-10-07T04:08:29.267Z,0.00
2022-10-07T04:09:29.132Z,0.00
2022-10-07T04:10:29.050Z,0.00
2022-10-07T04:11:28.966Z,0.00
2022-10-07T04:12:28.887Z,0.00
2022-10-07T04:13:28.804Z,0.00
2022-10-07T04:14:28.719Z,0.00
2022-10-07T04:15:28.634Z,0.00
2022-10-07T04:16:28.683Z,0.00
2022-10-07T04:17:28.470Z,0.00
2022-10-07T04:18:28.388Z,0.00
2022-10-07T04:19:28.305Z,0.00
2022-10-07T04:20:28.222Z,0.00
2022-10-07T04:21:28.239Z,0.00
2022-10-07T04:22:28.058Z,0.00
2022-10-07T04:23:27.995Z,0.00
2022-10-07T04:24:27.893Z,0.00
2022-10-07T04:25:27.807Z,0.00
2022-10-07T04:26:27.727Z,0.00
2022-10-07T04:27:50.079Z,0.00
2022-10-07T04:28:27.599Z,0.00
2022-10-07T04:29:27.486Z,0.00
2022-10-07T04:30:27.421Z,0.00
2022-10-07T04:31:27.377Z,0.00
2022-10-07T04:32:27.228Z,0.00
2022-10-07T04:33:27.145Z,0.00
2022-10-07T04:34:27.063Z,0.00
2022-10-07T04:35:26.976Z,0.00
2022-10-07T04:36:26.897Z,0.00
2022-10-07T04:37:26.810Z,0.00
2022-10-07T04:38:28.522Z,0.00
2022-10-07T04:39:37.643Z,0.00
2022-10-07T04:40:26.564Z,0.00
2022-10-07T04:41:26.482Z,0.00
2022-10-07T04:42:26.399Z,0.00
2022-10-07T04:43:26.315Z,0.00
2022-10-07T04:44:26.232Z,0.00
2022-10-07T04:45:26.146Z,0.00
2022-10-07T04:46:26.185Z,0.00
2022-10-07T04:47:25.983Z,0.00
2022-10-07T04:48:25.900Z,0.00
2022-10-07T04:51:51.440Z,0.00
2022-10-07T04:52:51.366Z,0.00
2022-10-07T04:53:55.765Z,0.00
2022-10-07T04:54:51.210Z,0.00
2022-10-07T04:55:51.111Z,0.00
2022-10-07T04:56:51.025Z,0.00
2022-10-07T04:57:50.943Z,0.00
2022-10-07T04:58:50.861Z,0.00
2022-10-07T04:59:50.775Z,0.00
2022-10-07T05:00:50.834Z,0.00
2022-10-07T05:01:50.641Z,0.00
2022-10-07T05:02:50.529Z,0.00
2022-10-07T05:03:50.446Z,0.00
2022-10-07T05:04:50.362Z,0.00
2022-10-07T05:05:50.285Z,0.00
2022-10-07T05:06:50.201Z,4.00
2022-10-07T05:07:50.120Z,0.00
2022-10-07T05:08:50.065Z,4.00
2022-10-07T05:09:49.947Z,4.00
2022-10-07T05:10:49.886Z,4.00
2022-10-07T05:11:49.783Z,4.00
2022-10-07T05:12:55.124Z,4.00
2022-10-07T05:13:49.617Z,4.00
2022-10-07T05:14:49.584Z,4.00
2022-10-07T05:15:49.481Z,8.00
2022-10-07T05:16:49.371Z,12.00
2022-10-07T05:17:49.285Z,12.00
2022-10-07T05:18:49.204Z,12.00
2022-10-07T05:19:49.120Z,16.00
2022-10-07T05:20:49.039Z,20.00
2022-10-07T05:21:48.957Z,20.00
2022-10-07T05:22:48.874Z,24.00
2022-10-07T05:23:48.890Z,28.00
2022-10-07T05:24:48.710Z,32.00
2022-10-07T05:25:48.625Z,36.00
2022-10-07T05:26:48.565Z,40.00
2022-10-07T05:27:48.863Z,40.00
2022-10-07T05:28:48.379Z,52.00
2022-10-07T05:29:48.301Z,56.00
2022-10-07T05:30:48.216Z,64.00
2022-10-07T05:31:48.244Z,72.00
2022-10-07T05:32:48.049Z,76.00
2022-10-07T05:33:47.967Z,88.00
2022-10-07T05:34:47.886Z,92.00
2022-10-07T05:35:47.801Z,100.00
2022-10-07T05:36:47.723Z,108.00
2022-10-07T05:37:51.235Z,112.00
2022-10-07T05:38:47.555Z,116.00
2022-10-07T05:39:47.472Z,128.00
2022-10-07T05:40:47.390Z,144.00
2022-10-07T05:41:47.308Z,148.00
2022-10-07T05:42:47.245Z,164.00
2022-10-07T05:43:47.142Z,176.00
2022-10-07T05:44:47.062Z,184.00
2022-10-07T05:45:47.023Z,192.00
2022-10-07T05:46:46.897Z,208.00
2022-10-07T05:47:47.189Z,216.00
2022-10-07T05:48:46.733Z,228.00
2022-10-07T05:49:46.650Z,240.00
2022-10-07T05:50:46.581Z,256.00
2022-10-07T05:51:46.491Z,276.00
2022-10-07T05:52:46.403Z,268.00
2022-10-07T05:53:46.329Z,276.00
2022-10-07T05:54:46.240Z,280.00
2022-10-07T05:55:46.154Z,296.00
2022-10-07T05:56:46.076Z,316.00
2022-10-07T05:57:46.472Z,344.00
2022-10-07T05:58:45.927Z,360.00
2022-10-07T05:59:45.826Z,360.00
2022-10-07T06:00:45.768Z,380.00
2022-10-07T06:01:45.702Z,428.00
2022-10-07T06:02:45.736Z,440.00
2022-10-07T06:03:45.496Z,452.00
2022-10-07T06:04:45.414Z,492.00
2022-10-07T06:05:45.332Z,520.00
2022-10-07T06:06:45.253Z,484.00
2022-10-07T06:07:45.468Z,460.00
2022-10-07T06:08:45.087Z,468.00
2022-10-07T06:09:45.005Z,504.00
2022-10-07T06:10:44.925Z,596.00
2022-10-07T06:11:44.838Z,636.00
2022-10-07T06:12:44.758Z,640.00
2022-10-07T06:13:44.725Z,620.00
2022-10-07T06:14:44.612Z,656.00
2022-10-07T06:15:44.512Z,660.00
2022-10-07T06:16:44.569Z,664.00
2022-10-07T06:17:44.787Z,664.00
2022-10-07T06:18:44.267Z,628.00
2022-10-07T06:19:44.183Z,624.00
2022-10-07T06:20:44.102Z,624.00
2022-10-07T06:21:44.021Z,620.00
2022-10-07T06:22:43.942Z,616.00
2022-10-07T06:23:43.857Z,632.00
2022-10-07T06:24:43.775Z,656.00
2022-10-07T06:25:43.695Z,660.00
2022-10-07T06:26:43.618Z,656.00
2022-10-07T06:27:43.949Z,632.00
2022-10-07T06:28:43.537Z,648.00
2022-10-07T06:29:43.367Z,680.00
2022-10-07T06:30:43.353Z,724.00
2022-10-07T06:31:43.203Z,748.00
2022-10-07T06:32:43.125Z,724.00
2022-10-07T06:33:43.041Z,780.00
2022-10-07T06:34:42.959Z,840.00
2022-10-07T06:35:42.879Z,872.00
2022-10-07T06:36:42.797Z,988.00
2022-10-07T06:37:43.107Z,1032.00
2022-10-07T06:38:42.635Z,888.00
2022-10-07T06:39:42.550Z,900.00
2022-10-07T06:40:42.472Z,944.00
2022-10-07T06:41:42.391Z,1056.00
2022-10-07T06:42:42.310Z,1212.00
2022-10-07T06:43:42.222Z,1144.00
2022-10-07T06:44:42.145Z,856.00
2022-10-07T06:45:42.091Z,808.00
2022-10-07T06:46:42.001Z,804.00
2022-10-07T06:47:41.976Z,824.00
2022-10-07T06:48:41.820Z,852.00
2022-10-07T06:49:41.738Z,868.00
2022-10-07T06:50:41.654Z,888.00
2022-10-07T06:51:41.575Z,936.00
2022-10-07T06:52:43.564Z,952.00
2022-10-07T06:53:41.414Z,976.00
2022-10-07T06:54:41.330Z,948.00
2022-10-07T06:55:41.247Z,944.00
2022-10-07T06:56:41.168Z,960.00
2022-10-07T06:57:45.629Z,948.00
2022-10-07T06:58:41.009Z,944.00
2022-10-07T06:59:40.925Z,984.00
2022-10-07T07:00:40.840Z,988.00
2022-10-07T07:01:40.819Z,972.00
2022-10-07T07:02:40.803Z,984.00
2022-10-07T07:03:40.600Z,992.00
2022-10-07T07:04:40.565Z,996.00
2022-10-07T07:05:44.417Z,1032.00
2022-10-07T07:06:40.352Z,1080.00
2022-10-07T07:07:40.271Z,1128.00
2022-10-07T07:08:40.192Z,1152.00
2022-10-07T07:09:40.106Z,1228.00
2022-10-07T07:10:40.026Z,1376.00
2022-10-07T07:11:39.949Z,1448.00
2022-10-07T07:13:42.552Z,1252.00
2022-10-07T07:14:39.701Z,1260.00
2022-10-07T07:15:39.618Z,1276.00
2022-10-07T07:16:39.600Z,1252.00
2022-10-07T07:17:39.457Z,1352.00
2022-10-07T07:18:39.484Z,1376.00
2022-10-07T07:19:39.297Z,1364.00
2022-10-07T07:20:39.213Z,1328.00
2022-10-07T07:21:39.133Z,1324.00
2022-10-07T07:22:39.051Z,1696.00
2022-10-07T07:23:38.971Z,2032.00
2022-10-07T07:24:38.889Z,1996.00
2022-10-07T07:25:38.811Z,1448.00
2022-10-07T07:26:38.727Z,1212.00
2022-10-07T07:27:38.649Z,1176.00
2022-10-07T07:28:38.671Z,1212.00
2022-10-07T07:29:38.636Z,1224.00
2022-10-07T07:30:38.439Z,1228.00
2022-10-07T07:31:38.326Z,1212.00
2022-10-07T07:32:38.250Z,1204.00
2022-10-07T07:33:38.162Z,1224.00
2022-10-07T07:34:38.319Z,1244.00
2022-10-07T07:35:38.001Z,1252.00
2022-10-07T07:36:37.919Z,1220.00
2022-10-07T07:37:37.840Z,1288.00
2022-10-07T07:38:37.759Z,1272.00
2022-10-07T07:39:37.676Z,1256.00
2022-10-07T07:40:37.804Z,1236.00
2022-10-07T07:41:37.516Z,1220.00
2022-10-07T07:42:37.685Z,1272.00
2022-10-07T07:43:37.358Z,1360.00
2022-10-07T07:44:37.292Z,1344.00
2022-10-07T07:45:37.199Z,1332.00
2022-10-07T07:46:37.115Z,1352.00
2022-10-07T07:47:37.035Z,1276.00
2022-10-07T07:48:36.954Z,1284.00
2022-10-07T07:49:36.875Z,1364.00
2022-10-07T07:50:36.811Z,1328.00
2022-10-07T07:51:36.715Z,1328.00
2022-10-07T07:52:36.634Z,1428.00
2022-10-07T07:53:36.555Z,1424.00
2022-10-07T07:54:36.472Z,1388.00
2022-10-07T07:55:36.392Z,1392.00
2022-10-07T07:56:36.314Z,1404.00
2022-10-07T07:57:36.233Z,1404.00
2022-10-07T07:58:36.150Z,1412.00
2022-10-07T07:59:36.074Z,1436.00
2022-10-07T08:00:35.991Z,1460.00
2022-10-07T08:01:35.997Z,1472.00
2022-10-07T08:02:35.852Z,1496.00
2022-10-07T08:03:35.753Z,1528.00
2022-10-07T08:04:35.670Z,1568.00
2022-10-07T08:05:35.594Z,1592.00
2022-10-07T08:06:35.531Z,1604.00
2022-10-07T08:07:35.437Z,1604.00
2022-10-07T08:08:35.349Z,1540.00
2022-10-07T08:09:35.274Z,1668.00
2022-10-07T08:10:35.192Z,1724.00
2022-10-07T08:11:35.213Z,1728.00
2022-10-07T08:12:35.033Z,1684.00
2022-10-07T08:13:34.953Z,1656.00
2022-10-07T08:14:34.871Z,1648.00
2022-10-07T08:15:34.824Z,1632.00
2022-10-07T08:16:34.714Z,1640.00
2022-10-07T08:17:34.637Z,1692.00
2022-10-07T08:18:34.555Z,1772.00
2022-10-07T08:19:34.475Z,1792.00
2022-10-07T08:20:34.396Z,1936.00
2022-10-07T08:21:34.318Z,1988.00
2022-10-07T08:22:34.347Z,1976.00
2022-10-07T08:23:34.159Z,1904.00
2022-10-07T08:24:34.230Z,1928.00
2022-10-07T08:25:34.001Z,1800.00
2022-10-07T08:27:16.402Z,1764.00
2022-10-07T08:28:16.395Z,1724.00
2022-10-07T08:29:16.245Z,1788.00
2022-10-07T08:30:16.166Z,1812.00
2022-10-07T08:31:16.187Z,1840.00
2022-10-07T08:32:16.006Z,1960.00
2022-10-07T08:33:15.928Z,2076.00
2022-10-07T08:34:15.850Z,2084.00
2022-10-07T08:35:15.767Z,2040.00
2022-10-07T08:36:15.691Z,2028.00
2022-10-07T08:37:15.611Z,2020.00
2022-10-07T08:38:15.550Z,1908.00
2022-10-07T08:39:15.455Z,2060.00
2022-10-07T08:40:15.377Z,2040.00
2022-10-07T08:41:15.296Z,2300.00
2022-10-07T08:42:15.267Z,2400.00
2022-10-07T08:43:15.140Z,2340.00
2022-10-07T08:44:16.873Z,2464.00
2022-10-07T09:41:43.473Z,3152.00
2022-10-07T09:42:43.377Z,3188.00
2022-10-07T09:43:47.133Z,3320.00
2022-10-07T09:44:43.225Z,3684.00
2022-10-07T09:45:43.145Z,3540.00
2022-10-07T09:46:43.129Z,3380.00
2022-10-07T09:47:43.336Z,3240.00
2022-10-07T09:48:42.917Z,3168.00
2022-10-07T09:49:42.837Z,3232.00
2022-10-07T09:50:42.763Z,3308.00
2022-10-07T09:51:42.686Z,3304.00
2022-10-07T09:52:42.611Z,3312.00
2022-10-07T09:53:42.533Z,3324.00
2022-10-07T09:54:42.462Z,3324.00
2022-10-07T09:56:24.864Z,3472.00
2022-10-07T09:57:24.814Z,3352.00
2022-10-07T09:58:24.726Z,3428.00
2022-10-07T09:59:24.634Z,3464.00
2022-10-07T10:00:24.557Z,3360.00
2022-10-07T10:01:24.481Z,3352.00
2022-10-07T10:04:46.866Z,3496.00
2022-10-07T10:05:46.790Z,3412.00
2022-10-07T10:06:46.713Z,4024.00
2022-10-07T10:07:47.237Z,4124.00
2022-10-07T10:08:46.558Z,4216.00
2022-10-07T10:09:46.485Z,3912.00
2022-10-07T11:52:55.736Z,21152.00
2022-10-07T11:53:55.398Z,26944.00
2022-10-07T11:54:55.323Z,29440.00
2022-10-07T11:55:55.408Z,28416.00
2022-10-07T11:56:55.182Z,30176.00
2022-10-07T11:57:55.110Z,27936.00
2022-10-07T11:58:55.042Z,26368.00
2022-10-07T11:59:54.971Z,24640.00
2022-10-07T12:00:54.901Z,25088.00
2022-10-07T12:01:54.853Z,25440.00
2022-10-07T12:02:54.834Z,30144.00
2022-10-07T12:03:54.689Z,32192.00
2022-10-07T12:04:54.617Z,31008.00
2022-10-07T12:05:54.550Z,33120.00
2022-10-07T12:06:54.489Z,34272.00
2022-10-07T12:26:51.142Z,17824.00
2022-10-07T12:27:51.054Z,22112.00
2022-10-07T12:28:50.982Z,24256.00
2022-10-07T12:29:50.917Z,23232.00
2022-10-07T12:30:50.846Z,25440.00
2022-10-07T12:31:50.899Z,27040.00
2022-10-07T12:32:50.704Z,24416.00
2022-10-07T12:33:50.637Z,26688.00
2022-10-07T12:34:50.568Z,26176.00
2022-10-07T12:35:54.278Z,26144.00
2022-10-07T12:36:50.430Z,25056.00
2022-10-07T12:37:50.485Z,23680.00
2022-10-07T12:38:50.292Z,24864.00
2022-10-07T12:39:50.226Z,27744.00
2022-10-07T12:40:50.154Z,28960.00
2022-10-07T12:41:50.900Z,28000.00
2022-10-07T12:42:50.038Z,25664.00
2022-10-07T12:43:49.953Z,26912.00
2022-10-07T12:44:49.883Z,27552.00
2022-10-07T12:45:52.494Z,26848.00
2022-10-07T12:46:49.749Z,30208.00
2022-10-07T12:47:49.680Z,31552.00
2022-10-07T12:48:49.617Z,30784.00
2022-10-07T12:49:49.549Z,29472.00
2022-10-07T12:50:49.477Z,30432.00
2022-10-07T12:51:49.412Z,32800.00
2022-10-07T12:52:49.476Z,32864.00
2022-10-07T12:53:49.478Z,30784.00
2022-10-07T12:54:49.213Z,32384.00
2022-10-07T12:55:49.147Z,32800.00
2022-10-07T12:56:49.078Z,32352.00
2022-10-07T12:57:49.012Z,32096.00
2022-10-07T12:58:48.971Z,31008.00
2022-10-07T12:59:48.885Z,32960.00
2022-10-07T13:01:48.955Z,32576.00
2022-10-07T13:02:48.952Z,34144.00
2022-10-07T13:03:48.624Z,32064.00
2022-10-07T13:04:48.552Z,33056.00
2022-10-07T13:05:48.485Z,33696.00
2022-10-07T13:06:48.422Z,31712.00
2022-10-07T13:07:48.355Z,33952.00
2022-10-07T13:08:48.290Z,33408.00
2022-10-07T13:09:48.223Z,31776.00
2022-10-07T13:10:48.162Z,31584.00
2022-10-07T13:11:48.185Z,30144.00
2022-10-07T13:12:48.680Z,32320.00
2022-10-07T13:13:47.970Z,31264.00
2022-10-07T13:14:47.927Z,33472.00
2022-10-07T13:15:47.836Z,34848.00
2022-10-07T13:16:47.823Z,35072.00
2022-10-07T13:17:47.709Z,36448.00
2022-10-07T13:18:47.794Z,36608.00
2022-10-07T13:19:47.579Z,37728.00
2022-10-07T13:20:47.516Z,39040.00
2022-10-07T13:21:48.260Z,39424.00
2022-10-07T13:22:47.977Z,37088.00
2022-10-07T13:23:47.327Z,35616.00
2022-10-07T13:24:47.264Z,35424.00
2022-10-07T13:25:47.196Z,39360.00
2022-10-07T13:26:47.133Z,41632.00
2022-10-07T13:27:47.069Z,42752.00
2022-10-07T13:28:47.076Z,44320.00
2022-10-07T13:29:46.942Z,46560.00
2022-10-07T13:30:46.896Z,46112.00
2022-10-07T13:31:46.858Z,49664.00
2022-10-07T13:32:47.156Z,48000.00
2022-10-07T13:33:46.686Z,45568.00
2022-10-07T13:34:46.623Z,45760.00
2022-10-07T13:35:46.559Z,42304.00
2022-10-07T13:36:46.493Z,38976.00
2022-10-07T13:37:46.431Z,37536.00
2022-10-07T13:38:46.391Z,36960.00
2022-10-07T13:39:46.302Z,33248.00
2022-10-07T13:40:46.241Z,33280.00
2022-10-07T13:41:46.956Z,32480.00
2022-10-07T13:42:46.408Z,30624.00
2022-10-07T13:43:46.049Z,26304.00
2022-10-07T13:44:45.985Z,25152.00
2022-10-07T13:45:46.008Z,25984.00
2022-10-07T13:46:45.876Z,24832.00
2022-10-07T13:47:45.791Z,23264.00
2022-10-07T13:48:46.013Z,13048.00
2022-10-07T13:49:45.663Z,19360.00
2022-10-07T13:50:45.600Z,17536.00
2022-10-07T13:51:45.535Z,17536.00
2022-10-07T13:52:45.716Z,18016.00
2022-10-07T13:53:45.406Z,12892.00
2022-10-07T13:54:45.339Z,10476.00
2022-10-07T13:55:45.275Z,12328.00
2022-10-07T13:56:45.208Z,11536.00
2022-10-07T13:57:45.147Z,5944.00
2022-10-07T13:58:45.079Z,5852.00
2022-10-07T13:59:45.013Z,6668.00
2022-10-07T14:00:44.948Z,6988.00
2022-10-07T14:01:44.955Z,6980.00
2022-10-07T14:02:45.377Z,7464.00
2022-10-07T14:04:45.487Z,7724.00
2022-10-07T14:05:44.610Z,7720.00
2022-10-07T14:06:44.542Z,16640.00
2022-10-07T14:07:44.474Z,14020.00
2022-10-07T14:08:44.404Z,10096.00
2022-10-07T14:09:44.338Z,8552.00
2022-10-07T14:10:44.265Z,7948.00
2022-10-07T14:14:34.879Z,6068.00
2022-10-07T14:15:34.806Z,6448.00
2022-10-07T14:16:34.805Z,7276.00
2022-10-07T14:17:34.671Z,7612.00
2022-10-07T14:18:34.730Z,7092.00
2022-10-07T14:19:34.527Z,6836.00
2022-10-07T14:20:34.458Z,6472.00
2022-10-07T14:24:59.972Z,6328.00
2022-10-07T14:25:59.906Z,7256.00
2022-10-07T14:26:59.833Z,8160.00
2022-10-07T14:27:59.815Z,20128.00
2022-10-07T14:28:59.691Z,9248.00
2022-10-07T14:29:59.676Z,8268.00
2022-10-07T14:30:59.632Z,7904.00
2022-10-07T14:32:59.445Z,6564.00
2022-10-07T14:34:59.291Z,12732.00
2022-10-07T14:35:59.195Z,7384.00
2022-10-07T14:36:59.124Z,5860.00
2022-10-07T14:37:59.054Z,7584.00
2022-10-07T14:38:58.983Z,7424.00
2022-10-07T14:39:58.985Z,5336.00
2022-10-07T14:40:58.840Z,6368.00
2022-10-07T14:41:58.769Z,7996.00
2022-10-07T14:42:58.700Z,6764.00
2022-10-07T14:43:58.626Z,7468.00
2022-10-07T14:44:58.575Z,7104.00
2022-10-07T14:45:58.521Z,6424.00
2022-10-07T14:46:58.419Z,5996.00
2022-10-07T14:47:58.344Z,5364.00
2022-10-07T14:48:58.274Z,5240.00
2022-10-07T14:49:58.209Z,5108.00
2022-10-07T14:50:58.159Z,4948.00
2022-10-07T14:51:58.061Z,5020.00
2022-10-07T14:52:57.991Z,4808.00
2022-10-07T14:53:57.920Z,5300.00
2022-10-07T14:54:57.882Z,5640.00
2022-10-07T14:55:57.780Z,6588.00
2022-10-07T14:56:57.704Z,7256.00
2022-10-07T14:57:57.635Z,7552.00
2022-10-07T14:58:57.562Z,7528.00
2022-10-07T14:59:57.490Z,7112.00
2022-10-07T15:18:55.828Z,5148.00
2022-10-07T15:19:55.686Z,5268.00
2022-10-07T15:20:55.612Z,5236.00
2022-10-07T15:21:58.159Z,5644.00
2022-10-07T15:35:45.194Z,1556.00
2022-10-07T15:36:46.055Z,1816.00
2022-10-07T15:37:44.962Z,1916.00
2022-10-07T15:38:44.892Z,1660.00
2022-10-07T15:39:44.818Z,1192.00
2022-10-07T15:40:44.746Z,1136.00
2022-10-07T15:41:44.674Z,1144.00
2022-10-07T15:42:45.048Z,1280.00
2022-10-07T15:43:44.524Z,1452.00
2022-10-07T15:44:44.455Z,1628.00
2022-10-07T15:45:44.377Z,1464.00
2022-10-07T15:46:44.409Z,1348.00
2022-10-07T15:47:44.232Z,1324.00
2022-10-07T15:48:44.159Z,1340.00
2022-10-07T15:49:44.085Z,1292.00
2022-10-07T15:50:44.014Z,1272.00
2022-10-07T15:51:43.962Z,1276.00
2022-10-07T15:52:44.154Z,1400.00
2022-10-07T15:53:43.792Z,1540.00
2022-10-07T15:54:44.934Z,1808.00
2022-10-07T16:10:13.155Z,1740.00
2022-10-07T16:11:11.361Z,1836.00
2022-10-07T16:12:11.288Z,1660.00
2022-10-07T16:13:11.224Z,1484.00
2022-10-07T16:14:11.140Z,1396.00
2022-10-07T16:15:11.068Z,1308.00
2022-10-07T16:16:11.137Z,1240.00
2022-10-07T16:17:13.541Z,1140.00
2022-10-07T16:18:10.843Z,1048.00
2022-10-07T16:19:10.771Z,968.00
2022-10-07T16:20:11.691Z,920.00
2022-10-07T16:21:10.622Z,932.00
2022-10-07T16:22:10.546Z,928.00
2022-10-07T16:23:10.473Z,880.00
2022-10-07T16:24:10.430Z,820.00
2022-10-07T16:26:32.855Z,688.00
2022-10-07T16:27:35.586Z,644.00
2022-10-07T16:28:32.730Z,584.00
2022-10-07T16:32:18.270Z,356.00
2022-10-07T16:33:18.196Z,308.00
2022-10-07T16:34:18.120Z,276.00
2022-10-07T16:35:18.046Z,240.00
2022-10-07T16:36:17.970Z,224.00
2022-10-07T16:37:17.895Z,204.00
2022-10-07T16:38:17.869Z,184.00
2022-10-07T16:40:45.259Z,132.00